sensor_id;sensor_type;location;lat;lon;timestamp;P1;durP1;ratioP1;P2;durP2;ratioP2
25780;SDS011;13626;48.128;11.628;2023-05-10T00:01:17;2.15;;;1.08;;
25780;SDS011;13626;48.128;11.628;2023-05-10T00:03:44;1.02;;;0.90;;
25780;SDS011;13626;48.128;11.628;2023-05-10T00:06:12;0.98;;;0.95;;
25780;SDS011;13626;48.128;11.628;2023-05-10T00:08:39;1.42;;;0.90;;
25780;SDS011;13626;48.128;11.628;2023-05-10T00:11:06;2.15;;;0.90;;
25780;SDS011;13626;48.128;11.628;2023-05-10T00:13:33;1.00;;;0.90;;
25780;SDS011;13626;48.128;11.628;2023-05-10T00:16:00;1.25;;;1.05;;
25780;SDS011;13626;48.128;11.628;2023-05-10T00:18:28;2.55;;;1.10;;
25780;SDS011;13626;48.128;11.628;2023-05-10T00:20:55;2.25;;;1.17;;
25780;SDS011;13626;48.128;11.628;2023-05-10T00:23:22;1.70;;;0.88;;
25780;SDS011;13626;48.128;11.628;2023-05-10T00:25:49;0.95;;;0.82;;
25780;SDS011;13626;48.128;11.628;2023-05-10T00:28:16;1.20;;;1.10;;
25780;SDS011;13626;48.128;11.628;2023-05-10T00:30:43;2.67;;;1.02;;
25780;SDS011;13626;48.128;11.628;2023-05-10T00:33:10;1.48;;;1.02;;
25780;SDS011;13626;48.128;11.628;2023-05-10T00:35:38;1.25;;;0.98;;
25780;SDS011;13626;48.128;11.628;2023-05-10T00:38:05;2.58;;;0.98;;
25780;SDS011;13626;48.128;11.628;2023-05-10T00:40:32;1.90;;;1.00;;
25780;SDS011;13626;48.128;11.628;2023-05-10T00:43:00;3.08;;;1.10;;
25780;SDS011;13626;48.128;11.628;2023-05-10T00:45:27;1.55;;;1.23;;
25780;SDS011;13626;48.128;11.628;2023-05-10T00:47:54;1.05;;;0.88;;
25780;SDS011;13626;48.128;11.628;2023-05-10T00:50:22;0.93;;;0.70;;
25780;SDS011;13626;48.128;11.628;2023-05-10T00:52:50;1.27;;;1.08;;
25780;SDS011;13626;48.128;11.628;2023-05-10T00:55:17;0.70;;;0.70;;
25780;SDS011;13626;48.128;11.628;2023-05-10T00:57:44;2.25;;;1.55;;
25780;SDS011;13626;48.128;11.628;2023-05-10T01:00:12;0.70;;;0.70;;
25780;SDS011;13626;48.128;11.628;2023-05-10T01:02:47;0.70;;;0.70;;
25780;SDS011;13626;48.128;11.628;2023-05-10T01:05:15;1.33;;;0.80;;
25780;SDS011;13626;48.128;11.628;2023-05-10T01:07:43;0.70;;;0.70;;
25780;SDS011;13626;48.128;11.628;2023-05-10T01:10:10;1.08;;;0.73;;
25780;SDS011;13626;48.128;11.628;2023-05-10T01:12:38;1.00;;;0.60;;
25780;SDS011;13626;48.128;11.628;2023-05-10T01:15:06;0.80;;;0.80;;
25780;SDS011;13626;48.128;11.628;2023-05-10T01:17:37;0.80;;;0.80;;
25780;SDS011;13626;48.128;11.628;2023-05-10T01:20:07;0.70;;;0.70;;
25780;SDS011;13626;48.128;11.628;2023-05-10T01:36:12;0.63;;;0.63;;
25780;SDS011;13626;48.128;11.628;2023-05-10T01:41:20;1.55;;;0.60;;
25780;SDS011;13626;48.128;11.628;2023-05-10T01:43:57;1.27;;;0.60;;
25780;SDS011;13626;48.128;11.628;2023-05-10T01:46:28;0.80;;;0.28;;
25780;SDS011;13626;48.128;11.628;2023-05-10T01:48:58;0.95;;;0.73;;
25780;SDS011;13626;48.128;11.628;2023-05-10T01:51:29;1.25;;;0.65;;
25780;SDS011;13626;48.128;11.628;2023-05-10T01:53:59;0.95;;;0.60;;
25780;SDS011;13626;48.128;11.628;2023-05-10T01:56:28;1.25;;;0.57;;
25780;SDS011;13626;48.128;11.628;2023-05-10T01:58:56;0.85;;;0.63;;
25780;SDS011;13626;48.128;11.628;2023-05-10T02:01:24;1.17;;;0.70;;
25780;SDS011;13626;48.128;11.628;2023-05-10T02:03:52;0.52;;;0.52;;
25780;SDS011;13626;48.128;11.628;2023-05-10T02:06:20;0.35;;;0.35;;
25780;SDS011;13626;48.128;11.628;2023-05-10T02:08:48;1.05;;;0.70;;
25780;SDS011;13626;48.128;11.628;2023-05-10T02:11:16;1.45;;;0.65;;
25780;SDS011;13626;48.128;11.628;2023-05-10T02:13:44;1.02;;;0.73;;
25780;SDS011;13626;48.128;11.628;2023-05-10T02:16:13;1.90;;;0.70;;
25780;SDS011;13626;48.128;11.628;2023-05-10T02:18:41;0.88;;;0.60;;
25780;SDS011;13626;48.128;11.628;2023-05-10T02:21:08;1.10;;;0.47;;
25780;SDS011;13626;48.128;11.628;2023-05-10T02:23:37;1.25;;;0.70;;
25780;SDS011;13626;48.128;11.628;2023-05-10T02:26:04;0.50;;;0.50;;
25780;SDS011;13626;48.128;11.628;2023-05-10T02:28:32;0.70;;;0.60;;
25780;SDS011;13626;48.128;11.628;2023-05-10T02:31:00;1.10;;;0.60;;
25780;SDS011;13626;48.128;11.628;2023-05-10T02:33:27;0.75;;;0.50;;
25780;SDS011;13626;48.128;11.628;2023-05-10T02:35:56;1.77;;;0.68;;
25780;SDS011;13626;48.128;11.628;2023-05-10T02:38:23;0.45;;;0.45;;
25780;SDS011;13626;48.128;11.628;2023-05-10T02:40:51;2.95;;;0.60;;
25780;SDS011;13626;48.128;11.628;2023-05-10T02:43:19;1.02;;;0.65;;
25780;SDS011;13626;48.128;11.628;2023-05-10T02:45:49;0.70;;;0.60;;
25780;SDS011;13626;48.128;11.628;2023-05-10T02:48:16;0.57;;;0.50;;
25780;SDS011;13626;48.128;11.628;2023-05-10T02:50:44;1.00;;;0.73;;
25780;SDS011;13626;48.128;11.628;2023-05-10T02:53:16;0.68;;;0.60;;
25780;SDS011;13626;48.128;11.628;2023-05-10T02:55:45;0.52;;;0.45;;
25780;SDS011;13626;48.128;11.628;2023-05-10T02:58:16;1.90;;;0.70;;
25780;SDS011;13626;48.128;11.628;2023-05-10T03:00:45;0.70;;;0.60;;
25780;SDS011;13626;48.128;11.628;2023-05-10T03:03:12;0.60;;;0.60;;
25780;SDS011;13626;48.128;11.628;2023-05-10T03:05:39;0.60;;;0.50;;
25780;SDS011;13626;48.128;11.628;2023-05-10T03:08:06;2.30;;;0.70;;
25780;SDS011;13626;48.128;11.628;2023-05-10T03:10:36;0.95;;;0.50;;
25780;SDS011;13626;48.128;11.628;2023-05-10T03:18:06;1.95;;;0.73;;
25780;SDS011;13626;48.128;11.628;2023-05-10T03:20:48;1.00;;;0.50;;
25780;SDS011;13626;48.128;11.628;2023-05-10T03:25:48;0.35;;;0.35;;
25780;SDS011;13626;48.128;11.628;2023-05-10T03:28:17;1.05;;;0.73;;
25780;SDS011;13626;48.128;11.628;2023-05-10T03:30:45;1.08;;;0.50;;
25780;SDS011;13626;48.128;11.628;2023-05-10T03:33:13;0.60;;;0.60;;
25780;SDS011;13626;48.128;11.628;2023-05-10T03:35:40;1.15;;;0.50;;
25780;SDS011;13626;48.128;11.628;2023-05-10T03:38:07;0.45;;;0.45;;
25780;SDS011;13626;48.128;11.628;2023-05-10T03:40:34;0.98;;;0.50;;
25780;SDS011;13626;48.128;11.628;2023-05-10T03:43:01;0.50;;;0.50;;
25780;SDS011;13626;48.128;11.628;2023-05-10T03:45:29;0.50;;;0.50;;
25780;SDS011;13626;48.128;11.628;2023-05-10T03:47:57;0.95;;;0.50;;
25780;SDS011;13626;48.128;11.628;2023-05-10T03:50:24;0.40;;;0.40;;
25780;SDS011;13626;48.128;11.628;2023-05-10T03:52:52;1.58;;;0.60;;
25780;SDS011;13626;48.128;11.628;2023-05-10T03:55:20;0.55;;;0.45;;
25780;SDS011;13626;48.128;11.628;2023-05-10T03:57:48;1.15;;;0.70;;
25780;SDS011;13626;48.128;11.628;2023-05-10T04:00:15;0.50;;;0.40;;
25780;SDS011;13626;48.128;11.628;2023-05-10T04:02:43;0.43;;;0.43;;
25780;SDS011;13626;48.128;11.628;2023-05-10T04:05:11;2.55;;;0.55;;
25780;SDS011;13626;48.128;11.628;2023-05-10T04:07:38;0.60;;;0.50;;
25780;SDS011;13626;48.128;11.628;2023-05-10T04:10:06;1.20;;;0.68;;
25780;SDS011;13626;48.128;11.628;2023-05-10T04:12:33;1.20;;;0.55;;
25780;SDS011;13626;48.128;11.628;2023-05-10T04:15:00;0.50;;;0.50;;
25780;SDS011;13626;48.128;11.628;2023-05-10T04:17:27;0.50;;;0.50;;
25780;SDS011;13626;48.128;11.628;2023-05-10T04:19:55;1.42;;;0.60;;
25780;SDS011;13626;48.128;11.628;2023-05-10T04:22:22;0.43;;;0.38;;
25780;SDS011;13626;48.128;11.628;2023-05-10T04:24:49;0.65;;;0.47;;
25780;SDS011;13626;48.128;11.628;2023-05-10T04:27:16;2.88;;;0.57;;
25780;SDS011;13626;48.128;11.628;2023-05-10T04:29:44;0.40;;;0.40;;
25780;SDS011;13626;48.128;11.628;2023-05-10T04:32:11;4.15;;;0.60;;
25780;SDS011;13626;48.128;11.628;2023-05-10T04:34:38;0.52;;;0.40;;
25780;SDS011;13626;48.128;11.628;2023-05-10T04:37:05;0.88;;;0.45;;
25780;SDS011;13626;48.128;11.628;2023-05-10T04:39:33;0.57;;;0.50;;
25780;SDS011;13626;48.128;11.628;2023-05-10T04:42:02;0.52;;;0.50;;
25780;SDS011;13626;48.128;11.628;2023-05-10T04:44:32;0.68;;;0.40;;
25780;SDS011;13626;48.128;11.628;2023-05-10T04:46:59;0.70;;;0.40;;
25780;SDS011;13626;48.128;11.628;2023-05-10T04:49:28;0.52;;;0.50;;
25780;SDS011;13626;48.128;11.628;2023-05-10T04:51:55;2.38;;;0.80;;
25780;SDS011;13626;48.128;11.628;2023-05-10T04:54:23;1.63;;;0.80;;
25780;SDS011;13626;48.128;11.628;2023-05-10T04:56:50;0.57;;;0.40;;
25780;SDS011;13626;48.128;11.628;2023-05-10T04:59:17;0.90;;;0.60;;
25780;SDS011;13626;48.128;11.628;2023-05-10T05:01:44;0.50;;;0.47;;
25780;SDS011;13626;48.128;11.628;2023-05-10T05:04:11;1.85;;;0.32;;
25780;SDS011;13626;48.128;11.628;2023-05-10T05:06:39;0.93;;;0.60;;
25780;SDS011;13626;48.128;11.628;2023-05-10T05:09:07;0.95;;;0.20;;
25780;SDS011;13626;48.128;11.628;2023-05-10T05:11:34;0.70;;;0.65;;
25780;SDS011;13626;48.128;11.628;2023-05-10T05:14:01;0.43;;;0.30;;
25780;SDS011;13626;48.128;11.628;2023-05-10T05:16:30;0.50;;;0.28;;
25780;SDS011;13626;48.128;11.628;2023-05-10T05:18:58;0.30;;;0.30;;
25780;SDS011;13626;48.128;11.628;2023-05-10T05:21:26;0.57;;;0.52;;
25780;SDS011;13626;48.128;11.628;2023-05-10T05:23:54;1.27;;;0.70;;
25780;SDS011;13626;48.128;11.628;2023-05-10T05:26:22;2.22;;;0.65;;
25780;SDS011;13626;48.128;11.628;2023-05-10T05:28:49;3.00;;;0.55;;
25780;SDS011;13626;48.128;11.628;2023-05-10T05:31:20;0.82;;;0.60;;
25780;SDS011;13626;48.128;11.628;2023-05-10T05:33:47;2.65;;;0.70;;
25780;SDS011;13626;48.128;11.628;2023-05-10T05:36:14;2.28;;;0.45;;
25780;SDS011;13626;48.128;11.628;2023-05-10T05:38:41;4.20;;;0.80;;
25780;SDS011;13626;48.128;11.628;2023-05-10T05:41:09;2.35;;;0.50;;
25780;SDS011;13626;48.128;11.628;2023-05-10T05:43:36;0.73;;;0.57;;
25780;SDS011;13626;48.128;11.628;2023-05-10T05:46:04;2.40;;;1.67;;
25780;SDS011;13626;48.128;11.628;2023-05-10T05:48:31;0.70;;;0.50;;
25780;SDS011;13626;48.128;11.628;2023-05-10T05:50:58;1.25;;;0.98;;
25780;SDS011;13626;48.128;11.628;2023-05-10T05:53:25;0.70;;;0.60;;
25780;SDS011;13626;48.128;11.628;2023-05-10T05:58:20;1.10;;;0.70;;
25780;SDS011;13626;48.128;11.628;2023-05-10T06:00:48;0.95;;;0.80;;
25780;SDS011;13626;48.128;11.628;2023-05-10T06:03:15;0.90;;;0.55;;
25780;SDS011;13626;48.128;11.628;2023-05-10T06:05:43;0.60;;;0.52;;
25780;SDS011;13626;48.128;11.628;2023-05-10T06:08:10;0.55;;;0.50;;
25780;SDS011;13626;48.128;11.628;2023-05-10T06:10:37;0.75;;;0.52;;
25780;SDS011;13626;48.128;11.628;2023-05-10T06:13:04;3.15;;;1.08;;
25780;SDS011;13626;48.128;11.628;2023-05-10T06:15:31;1.95;;;0.60;;
25780;SDS011;13626;48.128;11.628;2023-05-10T06:17:59;1.13;;;0.50;;
25780;SDS011;13626;48.128;11.628;2023-05-10T06:20:26;1.05;;;0.70;;
25780;SDS011;13626;48.128;11.628;2023-05-10T06:22:54;1.50;;;0.70;;
25780;SDS011;13626;48.128;11.628;2023-05-10T06:25:21;1.20;;;0.50;;
25780;SDS011;13626;48.128;11.628;2023-05-10T06:27:48;2.58;;;0.70;;
25780;SDS011;13626;48.128;11.628;2023-05-10T06:30:19;1.58;;;0.85;;
25780;SDS011;13626;48.128;11.628;2023-05-10T06:32:49;1.33;;;0.63;;
25780;SDS011;13626;48.128;11.628;2023-05-10T06:35:16;7.50;;;3.40;;
25780;SDS011;13626;48.128;11.628;2023-05-10T06:37:44;1.15;;;0.90;;
25780;SDS011;13626;48.128;11.628;2023-05-10T06:40:12;1.27;;;0.80;;
25780;SDS011;13626;48.128;11.628;2023-05-10T06:42:40;0.77;;;0.77;;
25780;SDS011;13626;48.128;11.628;2023-05-10T06:45:07;1.30;;;0.88;;
25780;SDS011;13626;48.128;11.628;2023-05-10T06:47:35;5.07;;;0.90;;
25780;SDS011;13626;48.128;11.628;2023-05-10T06:50:04;4.18;;;0.82;;
25780;SDS011;13626;48.128;11.628;2023-05-10T06:52:32;0.98;;;0.75;;
25780;SDS011;13626;48.128;11.628;2023-05-10T06:54:59;1.50;;;0.65;;
25780;SDS011;13626;48.128;11.628;2023-05-10T06:57:26;0.63;;;0.50;;
25780;SDS011;13626;48.128;11.628;2023-05-10T06:59:57;0.70;;;0.70;;
25780;SDS011;13626;48.128;11.628;2023-05-10T07:02:25;1.20;;;0.75;;
25780;SDS011;13626;48.128;11.628;2023-05-10T07:04:52;0.70;;;0.60;;
25780;SDS011;13626;48.128;11.628;2023-05-10T07:07:20;1.27;;;0.85;;
25780;SDS011;13626;48.128;11.628;2023-05-10T07:09:47;0.93;;;0.82;;
25780;SDS011;13626;48.128;11.628;2023-05-10T07:12:16;2.72;;;0.73;;
25780;SDS011;13626;48.128;11.628;2023-05-10T07:14:43;1.23;;;0.82;;
25780;SDS011;13626;48.128;11.628;2023-05-10T07:17:10;1.17;;;0.70;;
25780;SDS011;13626;48.128;11.628;2023-05-10T07:19:37;1.30;;;1.00;;
25780;SDS011;13626;48.128;11.628;2023-05-10T07:22:05;8.77;;;1.17;;
25780;SDS011;13626;48.128;11.628;2023-05-10T07:24:32;1.25;;;0.95;;
25780;SDS011;13626;48.128;11.628;2023-05-10T07:26:59;1.70;;;1.20;;
25780;SDS011;13626;48.128;11.628;2023-05-10T07:29:26;1.85;;;1.23;;
25780;SDS011;13626;48.128;11.628;2023-05-10T07:31:54;1.08;;;0.95;;
25780;SDS011;13626;48.128;11.628;2023-05-10T07:34:24;1.88;;;1.15;;
25780;SDS011;13626;48.128;11.628;2023-05-10T07:36:51;1.13;;;1.08;;
25780;SDS011;13626;48.128;11.628;2023-05-10T07:39:19;4.43;;;1.30;;
25780;SDS011;13626;48.128;11.628;2023-05-10T07:41:53;0.93;;;0.80;;
25780;SDS011;13626;48.128;11.628;2023-05-10T07:44:20;0.80;;;0.75;;
25780;SDS011;13626;48.128;11.628;2023-05-10T07:46:47;1.85;;;0.77;;
25780;SDS011;13626;48.128;11.628;2023-05-10T07:49:15;1.55;;;1.45;;
25780;SDS011;13626;48.128;11.628;2023-05-10T07:51:42;2.30;;;0.85;;
25780;SDS011;13626;48.128;11.628;2023-05-10T07:54:09;1.25;;;1.00;;
25780;SDS011;13626;48.128;11.628;2023-05-10T07:56:36;2.30;;;0.90;;
25780;SDS011;13626;48.128;11.628;2023-05-10T07:59:04;3.80;;;0.70;;
25780;SDS011;13626;48.128;11.628;2023-05-10T08:01:34;1.33;;;0.90;;
25780;SDS011;13626;48.128;11.628;2023-05-10T08:04:01;1.77;;;0.80;;
25780;SDS011;13626;48.128;11.628;2023-05-10T08:06:29;1.17;;;0.70;;
25780;SDS011;13626;48.128;11.628;2023-05-10T08:08:56;0.75;;;0.65;;
25780;SDS011;13626;48.128;11.628;2023-05-10T08:11:23;0.98;;;0.82;;
25780;SDS011;13626;48.128;11.628;2023-05-10T08:13:51;1.00;;;0.85;;
25780;SDS011;13626;48.128;11.628;2023-05-10T08:16:19;1.73;;;0.68;;
25780;SDS011;13626;48.128;11.628;2023-05-10T08:18:46;1.75;;;0.70;;
25780;SDS011;13626;48.128;11.628;2023-05-10T08:21:15;1.30;;;0.93;;
25780;SDS011;13626;48.128;11.628;2023-05-10T08:23:42;2.05;;;0.47;;
25780;SDS011;13626;48.128;11.628;2023-05-10T08:26:10;4.13;;;0.70;;
25780;SDS011;13626;48.128;11.628;2023-05-10T08:28:38;1.83;;;0.60;;
25780;SDS011;13626;48.128;11.628;2023-05-10T08:31:05;4.03;;;1.02;;
25780;SDS011;13626;48.128;11.628;2023-05-10T08:33:32;0.73;;;0.43;;
25780;SDS011;13626;48.128;11.628;2023-05-10T08:35:59;1.17;;;0.60;;
25780;SDS011;13626;48.128;11.628;2023-05-10T08:38:27;1.30;;;0.57;;
25780;SDS011;13626;48.128;11.628;2023-05-10T08:40:54;0.73;;;0.38;;
25780;SDS011;13626;48.128;11.628;2023-05-10T08:43:28;1.23;;;0.55;;
25780;SDS011;13626;48.128;11.628;2023-05-10T08:45:56;1.52;;;0.50;;
25780;SDS011;13626;48.128;11.628;2023-05-10T08:48:26;1.23;;;0.68;;
25780;SDS011;13626;48.128;11.628;2023-05-10T08:50:55;1.23;;;0.57;;
25780;SDS011;13626;48.128;11.628;2023-05-10T08:53:24;1.88;;;0.68;;
25780;SDS011;13626;48.128;11.628;2023-05-10T08:55:52;0.57;;;0.57;;
25780;SDS011;13626;48.128;11.628;2023-05-10T08:58:20;0.65;;;0.57;;
25780;SDS011;13626;48.128;11.628;2023-05-10T09:00:48;2.78;;;0.88;;
25780;SDS011;13626;48.128;11.628;2023-05-10T09:03:17;1.60;;;0.60;;
25780;SDS011;13626;48.128;11.628;2023-05-10T09:05:44;1.10;;;0.60;;
25780;SDS011;13626;48.128;11.628;2023-05-10T09:08:12;0.85;;;0.50;;
25780;SDS011;13626;48.128;11.628;2023-05-10T09:10:43;1.42;;;1.20;;
25780;SDS011;13626;48.128;11.628;2023-05-10T09:13:10;1.15;;;0.90;;
25780;SDS011;13626;48.128;11.628;2023-05-10T09:15:38;1.27;;;0.50;;
25780;SDS011;13626;48.128;11.628;2023-05-10T09:18:05;0.57;;;0.43;;
25780;SDS011;13626;48.128;11.628;2023-05-10T09:20:33;1.52;;;0.80;;
25780;SDS011;13626;48.128;11.628;2023-05-10T09:23:00;1.85;;;1.05;;
25780;SDS011;13626;48.128;11.628;2023-05-10T09:25:27;1.52;;;0.75;;
25780;SDS011;13626;48.128;11.628;2023-05-10T09:27:54;1.77;;;1.00;;
25780;SDS011;13626;48.128;11.628;2023-05-10T09:30:25;1.63;;;0.95;;
25780;SDS011;13626;48.128;11.628;2023-05-10T09:32:53;8.25;;;0.80;;
25780;SDS011;13626;48.128;11.628;2023-05-10T09:35:21;1.27;;;0.60;;
25780;SDS011;13626;48.128;11.628;2023-05-10T09:37:50;0.98;;;0.60;;
25780;SDS011;13626;48.128;11.628;2023-05-10T09:40:20;1.05;;;0.82;;
25780;SDS011;13626;48.128;11.628;2023-05-10T09:42:51;2.13;;;0.82;;
25780;SDS011;13626;48.128;11.628;2023-05-10T09:45:19;0.57;;;0.57;;
25780;SDS011;13626;48.128;11.628;2023-05-10T09:47:47;1.20;;;0.60;;
25780;SDS011;13626;48.128;11.628;2023-05-10T09:50:14;3.92;;;0.60;;
25780;SDS011;13626;48.128;11.628;2023-05-10T09:52:46;0.82;;;0.60;;
25780;SDS011;13626;48.128;11.628;2023-05-10T09:55:13;3.90;;;0.52;;
25780;SDS011;13626;48.128;11.628;2023-05-10T09:57:41;1.65;;;0.80;;
25780;SDS011;13626;48.128;11.628;2023-05-10T10:00:08;1.10;;;0.60;;
25780;SDS011;13626;48.128;11.628;2023-05-10T10:02:39;1.08;;;0.77;;
25780;SDS011;13626;48.128;11.628;2023-05-10T10:05:07;7.38;;;1.67;;
25780;SDS011;13626;48.128;11.628;2023-05-10T10:07:34;1.35;;;0.70;;
25780;SDS011;13626;48.128;11.628;2023-05-10T10:10:02;1.00;;;0.57;;
25780;SDS011;13626;48.128;11.628;2023-05-10T10:12:30;0.70;;;0.50;;
25780;SDS011;13626;48.128;11.628;2023-05-10T10:14:58;1.17;;;0.77;;
25780;SDS011;13626;48.128;11.628;2023-05-10T10:17:27;2.65;;;0.60;;
25780;SDS011;13626;48.128;11.628;2023-05-10T10:19:55;1.88;;;0.63;;
25780;SDS011;13626;48.128;11.628;2023-05-10T10:22:24;1.15;;;0.70;;
25780;SDS011;13626;48.128;11.628;2023-05-10T10:24:51;2.75;;;1.42;;
25780;SDS011;13626;48.128;11.628;2023-05-10T10:27:23;3.15;;;0.70;;
25780;SDS011;13626;48.128;11.628;2023-05-10T10:29:57;1.67;;;0.70;;
25780;SDS011;13626;48.128;11.628;2023-05-10T10:35:19;3.53;;;0.85;;
25780;SDS011;13626;48.128;11.628;2023-05-10T10:37:47;0.65;;;0.60;;
25780;SDS011;13626;48.128;11.628;2023-05-10T10:40:26;2.70;;;1.13;;
25780;SDS011;13626;48.128;11.628;2023-05-10T10:42:54;2.50;;;0.60;;
25780;SDS011;13626;48.128;11.628;2023-05-10T10:45:22;2.42;;;0.90;;
25780;SDS011;13626;48.128;11.628;2023-05-10T10:47:54;2.10;;;0.80;;
25780;SDS011;13626;48.128;11.628;2023-05-10T10:50:44;1.75;;;0.70;;
25780;SDS011;13626;48.128;11.628;2023-05-10T10:53:12;2.50;;;0.90;;
25780;SDS011;13626;48.128;11.628;2023-05-10T10:55:46;1.98;;;0.80;;
25780;SDS011;13626;48.128;11.628;2023-05-10T10:58:29;5.82;;;0.80;;
25780;SDS011;13626;48.128;11.628;2023-05-10T11:03:36;1.38;;;1.27;;
25780;SDS011;13626;48.128;11.628;2023-05-10T11:06:04;2.53;;;1.10;;
25780;SDS011;13626;48.128;11.628;2023-05-10T11:08:32;2.15;;;1.10;;
25780;SDS011;13626;48.128;11.628;2023-05-10T11:11:04;3.03;;;0.75;;
25780;SDS011;13626;48.128;11.628;2023-05-10T11:13:38;4.13;;;0.70;;
25780;SDS011;13626;48.128;11.628;2023-05-10T11:16:13;1.95;;;0.77;;
25780;SDS011;13626;48.128;11.628;2023-05-10T11:18:40;1.65;;;1.10;;
25780;SDS011;13626;48.128;11.628;2023-05-10T11:21:16;1.67;;;0.90;;
25780;SDS011;13626;48.128;11.628;2023-05-10T11:26:10;3.58;;;1.10;;
25780;SDS011;13626;48.128;11.628;2023-05-10T11:28:45;2.45;;;0.82;;
25780;SDS011;13626;48.128;11.628;2023-05-10T11:31:18;2.73;;;0.83;;
25780;SDS011;13626;48.128;11.628;2023-05-10T11:33:47;1.43;;;1.10;;
25780;SDS011;13626;48.128;11.628;2023-05-10T11:36:19;1.08;;;0.98;;
25780;SDS011;13626;48.128;11.628;2023-05-10T11:38:47;2.47;;;1.05;;
25780;SDS011;13626;48.128;11.628;2023-05-10T11:41:15;2.25;;;1.30;;
25780;SDS011;13626;48.128;11.628;2023-05-10T11:43:44;2.40;;;1.48;;
25780;SDS011;13626;48.128;11.628;2023-05-10T11:46:13;2.22;;;1.00;;
25780;SDS011;13626;48.128;11.628;2023-05-10T11:48:41;2.97;;;1.20;;
25780;SDS011;13626;48.128;11.628;2023-05-10T11:51:08;1.45;;;1.00;;
25780;SDS011;13626;48.128;11.628;2023-05-10T11:53:36;2.15;;;1.40;;
25780;SDS011;13626;48.128;11.628;2023-05-10T11:56:07;2.17;;;1.45;;
25780;SDS011;13626;48.128;11.628;2023-05-10T11:58:35;4.25;;;2.00;;
25780;SDS011;13626;48.128;11.628;2023-05-10T12:01:03;4.45;;;1.80;;
25780;SDS011;13626;48.128;11.628;2023-05-10T12:03:31;5.35;;;1.80;;
25780;SDS011;13626;48.128;11.628;2023-05-10T12:05:59;4.05;;;2.10;;
25780;SDS011;13626;48.128;11.628;2023-05-10T12:08:28;3.25;;;2.00;;
25780;SDS011;13626;48.128;11.628;2023-05-10T12:11:08;2.42;;;1.80;;
25780;SDS011;13626;48.128;11.628;2023-05-10T12:13:40;3.25;;;1.67;;
25780;SDS011;13626;48.128;11.628;2023-05-10T12:16:17;3.30;;;1.52;;
25780;SDS011;13626;48.128;11.628;2023-05-10T12:18:45;1.83;;;1.50;;
25780;SDS011;13626;48.128;11.628;2023-05-10T12:21:12;3.03;;;1.35;;
25780;SDS011;13626;48.128;11.628;2023-05-10T12:23:39;5.05;;;1.20;;
25780;SDS011;13626;48.128;11.628;2023-05-10T12:26:09;1.50;;;1.17;;
25780;SDS011;13626;48.128;11.628;2023-05-10T12:28:37;1.25;;;1.15;;
25780;SDS011;13626;48.128;11.628;2023-05-10T12:31:05;1.60;;;1.30;;
25780;SDS011;13626;48.128;11.628;2023-05-10T12:33:40;2.08;;;1.00;;
25780;SDS011;13626;48.128;11.628;2023-05-10T12:36:11;3.53;;;1.00;;
25780;SDS011;13626;48.128;11.628;2023-05-10T12:38:39;1.15;;;0.77;;
25780;SDS011;13626;48.128;11.628;2023-05-10T12:41:10;5.13;;;1.40;;
25780;SDS011;13626;48.128;11.628;2023-05-10T12:43:37;3.22;;;1.20;;
25780;SDS011;13626;48.128;11.628;2023-05-10T12:46:08;1.38;;;0.98;;
25780;SDS011;13626;48.128;11.628;2023-05-10T12:48:36;1.52;;;1.00;;
25780;SDS011;13626;48.128;11.628;2023-05-10T12:51:05;2.08;;;1.20;;
25780;SDS011;13626;48.128;11.628;2023-05-10T12:53:35;2.67;;;1.10;;
25780;SDS011;13626;48.128;11.628;2023-05-10T12:56:03;3.67;;;1.10;;
25780;SDS011;13626;48.128;11.628;2023-05-10T12:58:30;1.75;;;1.33;;
25780;SDS011;13626;48.128;11.628;2023-05-10T13:01:01;1.88;;;1.17;;
25780;SDS011;13626;48.128;11.628;2023-05-10T13:03:35;1.65;;;1.20;;
25780;SDS011;13626;48.128;11.628;2023-05-10T13:06:02;1.63;;;1.27;;
25780;SDS011;13626;48.128;11.628;2023-05-10T13:08:29;1.35;;;1.10;;
25780;SDS011;13626;48.128;11.628;2023-05-10T13:11:00;1.30;;;1.20;;
25780;SDS011;13626;48.128;11.628;2023-05-10T13:13:27;1.95;;;1.20;;
25780;SDS011;13626;48.128;11.628;2023-05-10T13:15:54;7.15;;;1.40;;
25780;SDS011;13626;48.128;11.628;2023-05-10T13:18:21;3.15;;;1.30;;
25780;SDS011;13626;48.128;11.628;2023-05-10T13:20:48;3.03;;;1.38;;
25780;SDS011;13626;48.128;11.628;2023-05-10T13:23:16;2.00;;;1.30;;
25780;SDS011;13626;48.128;11.628;2023-05-10T13:25:43;3.15;;;1.42;;
25780;SDS011;13626;48.128;11.628;2023-05-10T13:28:10;4.20;;;1.52;;
25780;SDS011;13626;48.128;11.628;2023-05-10T13:30:37;3.78;;;2.03;;
25780;SDS011;13626;48.128;11.628;2023-05-10T13:33:04;1.88;;;1.23;;
25780;SDS011;13626;48.128;11.628;2023-05-10T13:35:31;2.55;;;1.20;;
25780;SDS011;13626;48.128;11.628;2023-05-10T13:37:58;7.13;;;1.42;;
25780;SDS011;13626;48.128;11.628;2023-05-10T13:40:26;2.63;;;1.10;;
25780;SDS011;13626;48.128;11.628;2023-05-10T13:42:54;2.50;;;1.13;;
25780;SDS011;13626;48.128;11.628;2023-05-10T13:45:21;2.58;;;1.30;;
25780;SDS011;13626;48.128;11.628;2023-05-10T13:47:48;2.67;;;1.40;;
25780;SDS011;13626;48.128;11.628;2023-05-10T13:50:15;2.33;;;1.40;;
25780;SDS011;13626;48.128;11.628;2023-05-10T13:52:43;1.60;;;1.15;;
25780;SDS011;13626;48.128;11.628;2023-05-10T13:55:10;2.83;;;1.30;;
25780;SDS011;13626;48.128;11.628;2023-05-10T13:57:39;1.25;;;1.10;;
25780;SDS011;13626;48.128;11.628;2023-05-10T14:00:07;2.63;;;1.45;;
25780;SDS011;13626;48.128;11.628;2023-05-10T14:02:34;1.85;;;0.80;;
25780;SDS011;13626;48.128;11.628;2023-05-10T14:05:01;3.03;;;1.27;;
25780;SDS011;13626;48.128;11.628;2023-05-10T14:07:29;1.00;;;1.00;;
25780;SDS011;13626;48.128;11.628;2023-05-10T14:09:56;2.60;;;1.10;;
25780;SDS011;13626;48.128;11.628;2023-05-10T14:12:23;3.28;;;1.20;;
25780;SDS011;13626;48.128;11.628;2023-05-10T14:14:51;3.58;;;1.52;;
25780;SDS011;13626;48.128;11.628;2023-05-10T14:17:18;2.92;;;1.10;;
25780;SDS011;13626;48.128;11.628;2023-05-10T14:19:45;2.50;;;1.10;;
25780;SDS011;13626;48.128;11.628;2023-05-10T14:22:12;2.90;;;1.70;;
25780;SDS011;13626;48.128;11.628;2023-05-10T14:24:39;2.88;;;1.55;;
25780;SDS011;13626;48.128;11.628;2023-05-10T14:27:07;2.20;;;1.33;;
25780;SDS011;13626;48.128;11.628;2023-05-10T14:29:34;1.58;;;0.98;;
25780;SDS011;13626;48.128;11.628;2023-05-10T14:32:01;1.63;;;1.05;;
25780;SDS011;13626;48.128;11.628;2023-05-10T14:34:29;1.67;;;1.02;;
25780;SDS011;13626;48.128;11.628;2023-05-10T14:36:56;2.58;;;1.10;;
25780;SDS011;13626;48.128;11.628;2023-05-10T14:39:23;2.35;;;1.27;;
25780;SDS011;13626;48.128;11.628;2023-05-10T14:41:50;1.90;;;1.10;;
25780;SDS011;13626;48.128;11.628;2023-05-10T14:44:18;5.10;;;1.10;;
25780;SDS011;13626;48.128;11.628;2023-05-10T14:46:45;4.95;;;1.70;;
25780;SDS011;13626;48.128;11.628;2023-05-10T14:49:13;1.33;;;0.98;;
25780;SDS011;13626;48.128;11.628;2023-05-10T14:51:40;1.75;;;1.13;;
25780;SDS011;13626;48.128;11.628;2023-05-10T14:54:08;2.55;;;1.05;;
25780;SDS011;13626;48.128;11.628;2023-05-10T14:56:35;1.33;;;1.05;;
25780;SDS011;13626;48.128;11.628;2023-05-10T14:59:03;2.00;;;0.90;;
25780;SDS011;13626;48.128;11.628;2023-05-10T15:01:31;1.65;;;1.00;;
25780;SDS011;13626;48.128;11.628;2023-05-10T15:03:59;2.85;;;0.98;;
25780;SDS011;13626;48.128;11.628;2023-05-10T15:06:30;2.05;;;1.13;;
25780;SDS011;13626;48.128;11.628;2023-05-10T15:08:58;2.05;;;1.10;;
25780;SDS011;13626;48.128;11.628;2023-05-10T15:11:25;2.92;;;1.17;;
25780;SDS011;13626;48.128;11.628;2023-05-10T15:13:52;2.35;;;1.08;;